N112 BIKF-BIKF
Flight info
| Callsign | N112 |
|---|---|
| Flight time | 0h 12m |
| Altitude | 1000 |
| Route | CCTS |
| Aircraft | T2/L-V/N |
Departure
| Time | 2026-04-28 20:45 |
|---|---|
| Airport | Keflavik International Airport (BIKF) |
Arrival
| Time | 2026-04-28 20:57 |
|---|---|
| Airport | Keflavik International Airport (BIKF) |
| Time | Latitude | Longitude | Altitude | Speed | Heading |
|---|---|---|---|---|---|
| 2026-04-28 20:35 | 63.98195 | -22.58614 | 168 ft | 0 kts | 359° |
| 2026-04-28 20:37 | 63.98197 | -22.58614 | 168 ft | 0 kts | 335° |
| 2026-04-28 20:37 | 63.98198 | -22.58619 | 168 ft | 2 kts | 243° |
| 2026-04-28 20:37 | 63.98177 | -22.58754 | 169 ft | 15 kts | 260° |
| 2026-04-28 20:37 | 63.98184 | -22.58955 | 171 ft | 12 kts | 304° |
| 2026-04-28 20:38 | 63.98250 | -22.59072 | 172 ft | 13 kts | 337° |
| 2026-04-28 20:38 | 63.98346 | -22.59165 | 173 ft | 17 kts | 337° |
| 2026-04-28 20:38 | 63.98468 | -22.59260 | 175 ft | 20 kts | 353° |
| 2026-04-28 20:38 | 63.98613 | -22.59285 | 175 ft | 24 kts | 357° |
| 2026-04-28 20:39 | 63.98796 | -22.59341 | 170 ft | 27 kts | 346° |
| 2026-04-28 20:39 | 63.98907 | -22.59509 | 175 ft | 9 kts | 308° |
| 2026-04-28 20:39 | 63.98961 | -22.59590 | 176 ft | 13 kts | 330° |
| 2026-04-28 20:39 | 63.99046 | -22.59747 | 172 ft | 19 kts | 313° |
| 2026-04-28 20:40 | 63.99137 | -22.59955 | 172 ft | 20 kts | 312° |
| 2026-04-28 20:40 | 63.99167 | -22.60184 | 172 ft | 7 kts | 274° |
| 2026-04-28 20:40 | 63.99168 | -22.60208 | 171 ft | 0 kts | 289° |
| 2026-04-28 20:41 | 63.99173 | -22.60311 | 171 ft | 8 kts | 274° |
| 2026-04-28 20:41 | 63.99174 | -22.60346 | 171 ft | 0 kts | 267° |
| 2026-04-28 20:42 | 63.99174 | -22.60353 | 171 ft | 6 kts | 265° |
| 2026-04-28 20:43 | 63.99135 | -22.60515 | 173 ft | 16 kts | 207° |
| 2026-04-28 20:43 | 63.99096 | -22.60539 | 173 ft | 0 kts | 185° |
| 2026-04-28 20:43 | 63.99094 | -22.60540 | 173 ft | 0 kts | 184° |
| 2026-04-28 20:44 | 63.99093 | -22.60540 | 173 ft | 1 kts | 184° |
| 2026-04-28 20:44 | 63.99092 | -22.60540 | 173 ft | 0 kts | 186° |
| 2026-04-28 20:44 | 63.99076 | -22.60541 | 175 ft | 17 kts | 194° |
| 2026-04-28 20:45 | 63.98828 | -22.60557 | 341 ft | 50 kts | 193° |
| 2026-04-28 20:45 | 63.98504 | -22.60578 | 786 ft | 53 kts | 186° |
| 2026-04-28 20:45 | 63.98047 | -22.60598 | 1033 ft | 81 kts | 189° |
| 2026-04-28 20:45 | 63.97816 | -22.61737 | 952 ft | 147 kts | 283° |
| 2026-04-28 20:46 | 63.98596 | -22.63579 | 1041 ft | 153 kts | 275° |
| 2026-04-28 20:46 | 63.98488 | -22.65863 | 1052 ft | 147 kts | 250° |
| 2026-04-28 20:46 | 63.98658 | -22.68202 | 995 ft | 185 kts | 307° |
| 2026-04-28 20:46 | 63.99993 | -22.68635 | 1179 ft | 195 kts | 1° |
| 2026-04-28 20:47 | 64.01316 | -22.68471 | 1517 ft | 190 kts | 358° |
| 2026-04-28 20:47 | 64.02677 | -22.68171 | 1566 ft | 200 kts | 5° |
| 2026-04-28 20:47 | 64.03364 | -22.69020 | 2109 ft | 106 kts | 218° |
| 2026-04-28 20:47 | 64.03409 | -22.67935 | 2430 ft | 169 kts | 351° |
| 2026-04-28 20:48 | 64.03532 | -22.68972 | 2464 ft | 124 kts | 142° |
| 2026-04-28 20:48 | 64.04032 | -22.68578 | 872 ft | 150 kts | 212° |
| 2026-04-28 20:48 | 64.03855 | -22.67456 | 538 ft | 199 kts | 314° |
| 2026-04-28 20:48 | 64.04124 | -22.67820 | 676 ft | 124 kts | 236° |
| 2026-04-28 20:49 | 64.04353 | -22.67592 | 1155 ft | 110 kts | 257° |
| 2026-04-28 20:49 | 64.05229 | -22.68751 | 786 ft | 202 kts | 357° |
| 2026-04-28 20:49 | 64.05974 | -22.66767 | 925 ft | 169 kts | 115° |
| 2026-04-28 20:49 | 64.05205 | -22.65311 | 978 ft | 145 kts | 159° |
| 2026-04-28 20:50 | 64.04364 | -22.64012 | 1067 ft | 149 kts | 154° |
| 2026-04-28 20:50 | 64.03529 | -22.62552 | 967 ft | 151 kts | 153° |
| 2026-04-28 20:50 | 64.02707 | -22.61321 | 830 ft | 135 kts | 163° |
| 2026-04-28 20:50 | 64.01852 | -22.60672 | 727 ft | 125 kts | 175° |
| 2026-04-28 20:51 | 64.01022 | -22.60474 | 724 ft | 116 kts | 184° |
| 2026-04-28 20:51 | 64.00204 | -22.60509 | 694 ft | 120 kts | 187° |
| 2026-04-28 20:51 | 63.99350 | -22.60499 | 714 ft | 124 kts | 185° |
| 2026-04-28 20:51 | 63.98763 | -22.60457 | 685 ft | 128 kts | 185° |
| 2026-04-28 20:52 | 63.97573 | -22.60546 | 660 ft | 123 kts | 184° |
| 2026-04-28 20:52 | 63.97741 | -22.61324 | 748 ft | 163 kts | 355° |
| 2026-04-28 20:52 | 63.98967 | -22.61442 | 562 ft | 181 kts | 354° |
| 2026-04-28 20:52 | 64.00162 | -22.61757 | 697 ft | 165 kts | 341° |
| 2026-04-28 20:53 | 64.01516 | -22.61437 | 814 ft | 120 kts | 161° |
| 2026-04-28 20:53 | 64.00720 | -22.60606 | 550 ft | 126 kts | 174° |
| 2026-04-28 20:53 | 63.99894 | -22.60518 | 423 ft | 109 kts | 187° |
| 2026-04-28 20:54 | 63.99252 | -22.60497 | 291 ft | 83 kts | 188° |
| 2026-04-28 20:54 | 63.98622 | -22.60455 | 458 ft | 100 kts | 184° |
| 2026-04-28 20:54 | 63.97892 | -22.60333 | 884 ft | 106 kts | 181° |
| 2026-04-28 20:54 | 63.97160 | -22.60140 | 1375 ft | 105 kts | 190° |
| 2026-04-28 20:55 | 63.96613 | -22.61134 | 1763 ft | 117 kts | 249° |
| 2026-04-28 20:55 | 63.97048 | -22.63310 | 1449 ft | 185 kts | 302° |
| 2026-04-28 20:55 | 63.98350 | -22.63993 | 1345 ft | 218 kts | 5° |
| 2026-04-28 20:55 | 63.99790 | -22.63939 | 1700 ft | 199 kts | 353° |
| 2026-04-28 20:56 | 64.00873 | -22.62652 | 1388 ft | 162 kts | 97° |
| 2026-04-28 20:56 | 64.00392 | -22.61036 | 781 ft | 114 kts | 156° |
| 2026-04-28 20:56 | 63.99786 | -22.60523 | 416 ft | 87 kts | 186° |
| 2026-04-28 20:56 | 63.99210 | -22.60534 | 226 ft | 76 kts | 187° |
| 2026-04-28 20:57 | 63.98731 | -22.60533 | 184 ft | 54 kts | 188° |
| 2026-04-28 20:57 | 63.98452 | -22.60544 | 187 ft | 25 kts | 190° |
| 2026-04-28 20:57 | 63.98341 | -22.60551 | 169 ft | 10 kts | 137° |